HOURLY OBS INDEX

022

Yorke Peninsula and Kangaroo Island

CAPE BORDA

Site: 022823
Alt: 158.0m
95km W of KINGSCOTE (KANGAROO ISLAND)


  Time     Wind        Temp  DP   Baro     Rain since   Rain past  Vis(m), Cloud(base in m), Weather
  local        km/h                         9am  last   hr   10m    
Sat 09:30    E 22/ 28  16.6 11.1  1014.1    0.0   0.0   0.0   0.0   ----- 
Sat 10:00    N 11/ 15  17.4 10.3  1014.3    0.0   0.0   0.0   0.0   ----- 
Sat 10:30   NE 13/ 17  18.7 11.5  1014.2    0.0   0.0   0.0   0.0   ----- 
Sat 11:00  NNE 13/ 17  18.4 11.5  1014.3    0.0   0.0   0.0   0.0   ----- 
Sat 11:30   NE 19/ 22  17.8 12.0  1014.1    0.0   0.0   0.0   0.0   ----- 
Sat 12:00   NE 17/ 20  19.1 12.8  1014.0    0.0   0.0   0.0   0.0   ----- 
Sat 12:30   NE 15/ 19  19.9 12.4  1013.7    0.0   0.0   0.0   0.0   ----- 
Sat 13:00   NE 17/ 20  18.5 11.8  1013.6    0.0   0.0   0.0   0.0   ----- 
Sat 13:30  NNE 13/ 19  19.1 11.7  1013.3    0.0   0.0   0.0   0.0   ----- 
Sat 14:00  NNE 11/ 17  20.1 13.1  1013.0    0.0   0.0   0.0   0.0   ----- 
Sat 14:30  NNW  9/ 13  19.3 12.8  1012.8    0.0   0.0   0.0   0.0   ----- 

CAPE WILLOUGHBY

Site: 022803
Alt: 55.0m
49km ESE of KINGSCOTE (KANGAROO ISLAND)


  Time     Wind        Temp  DP   Baro     Rain since   Rain past  Vis(m), Cloud(base in m), Weather
  local        km/h                         9am  last   hr   10m    
Sat 09:30    E 30/ 37  15.2  9.8  1015.4    0.0   0.0   0.0   0.0   ----- 
Sat 10:00    E 28/ 35  15.3  9.9  1015.4    0.0   0.0   0.0   0.0   ----- 
Sat 10:30    E 28/ 37  15.6 10.2  1015.4    0.0   0.0   0.0   0.0   ----- 
Sat 11:00    E 26/ 32  16.0 10.1  1015.2    0.0   0.0   0.0   0.0   ----- 
Sat 11:30    E 24/ 30  16.0 10.1  1015.1    0.0   0.0   0.0   0.0   ----- 
Sat 12:00    E 24/ 30  16.2 10.5  1014.9    0.0   0.0   0.0   0.0   ----- 
Sat 12:30    E 20/ 28  16.0 10.3  1014.7    0.0   0.0   0.0   0.0   ----- 
Sat 13:00  ESE 22/ 28  16.7 10.1  1014.2    0.0   0.0   0.0   0.0   ----- 
Sat 13:30  ESE 20/ 28  16.7 10.3  1014.1    0.0   0.0   0.0   0.0   ----- 
Sat 14:00  ESE 22/ 28  16.8 10.6  1013.7    0.0   0.0   0.0   0.0   ----- 
Sat 14:30   SE 19/ 24  16.8 10.4  1013.7    0.0   0.0   0.0   0.0   ----- 

EDITHBURGH

Site: 022046
Alt: 6.0m
61km N of KINGSCOTE (KANGAROO ISLAND)


  Time     Wind        Temp  DP   Baro     Rain since   Rain past  Vis(m), Cloud(base in m), Weather
  local        km/h                         9am  last   hr   10m    
Sat 09:30    E 19/ 22  18.0 10.6  1013.9    0.0   0.0   0.0   0.0   ----- 
Sat 10:00    E 19/ 24  18.5 10.8  1013.8    0.0   0.0   0.0   0.0   ----- 
Sat 10:30  ESE 17/ 22  18.4 10.5  1013.7    0.0   0.0   0.0   0.0   ----- 
Sat 11:00  ESE 15/ 19  18.4 11.2  1013.7    0.0   0.0   0.0   0.0   ----- 
Sat 11:30  ESE 13/ 19  19.4 11.2  1013.6    0.0   0.0   0.0   0.0   ----- 
Sat 12:00    E 13/ 20  20.1 11.3  1013.4    0.0   0.0   0.0   0.0   ----- 
Sat 12:30  ENE 13/ 20  20.0 11.0  1013.2    0.0   0.0   0.0   0.0   ----- 
Sat 13:00   NE 11/ 17  20.2 10.0  1012.9    0.0   0.0   0.0   0.0   ----- 
Sat 13:30   SE 13/ 19  19.8 11.8  1012.5    0.0   0.0   0.0   0.0   ----- 
Sat 14:00  SSE 15/ 19  20.5 11.4  1012.2    0.0   0.0   0.0   0.0   ----- 
Sat 14:30  SSE 19/ 22  21.1 10.9  1011.8    0.0   0.0   0.0   0.0   ----- 

KADINA AWS

Site: 022050
Alt: 41.1m
45km N of MAITLAND (YORKE PENINSULA)


  Time     Wind        Temp  DP   Baro     Rain since   Rain past  Vis(m), Cloud(base in m), Weather
  local        km/h                         9am  last   hr   10m    
Sat 09:30    E 15/ 20  20.5  7.8  1012.5    0.0   0.0   0.0   0.0   ----- 
Sat 10:00  ENE 13/ 19  21.8  7.2  1012.6    0.0   0.0   0.0   0.0   ----- 
Sat 10:30  ENE 13/ 19  23.7  6.9  1012.4    0.0   0.0   0.0   0.0   ----- 
Sat 11:00  ENE  9/ 15  25.4  7.1  1012.4    0.0   0.0   0.0   0.0   ----- 
Sat 11:30   NE 11/ 15  26.7  6.7  1012.1    0.0   0.0   0.0   0.0   ----- 
Sat 12:00  NNW  9/ 15  27.5  6.8  1012.0    0.0   0.0   0.0   0.0   ----- 
Sat 12:30   NW 17/ 20  27.0  7.5  1011.7    0.0   0.0   0.0   0.0   ----- 
Sat 13:00   NW 11/ 17  28.1  7.9  1011.3    0.0   0.0   0.0   0.0   ----- 
Sat 13:30  WNW 19/ 26  26.4  7.9  1011.0    0.0   0.0   0.0   0.0   ----- 
Sat 14:00  WNW 17/ 20  26.4  7.4  1010.6    0.0   0.0   0.0   0.0   ----- 
Sat 14:30    W 15/ 19  26.8  6.8  1010.5    0.0   0.0   0.0   0.0   ----- 

KINGSCOTE AERO

Site: 022841
Alt: 6.2m
12km WSW of KINGSCOTE (KANGAROO ISLAND)


  Time     Wind        Temp  DP   Baro     Rain since   Rain past  Vis(m), Cloud(base in m), Weather
  local        km/h                         9am  last   hr   10m    
Sat 09:30    E 22/ 30  17.2 10.6  1014.7    0.0   0.0   0.0   0.0   10000 
Sat 10:00    E 24/ 32  17.7 10.3  1014.5    0.0   0.0   0.0   0.0   10000 
Sat 10:30    E 20/ 28  16.9 10.3  1014.7    0.0   0.0   0.0   0.0   10000 
Sat 11:00    E 20/ 26  18.9 10.7  1014.7    0.0   0.0   0.0   0.0   10000 
Sat 11:30    E 20/ 26  19.9 10.0  1014.4    0.0   0.0   0.0   0.0   10000 
Sat 12:00  ENE 19/ 26  20.5 11.2  1014.0    0.0   0.0   0.0   0.0   10000 
Sat 12:30  ENE 19/ 28  20.6 10.1  1013.8    0.0   0.0   0.0   0.0   10000 
Sat 13:00  ENE 17/ 24  20.9  9.8  1013.3    0.0   0.0   0.0   0.0   10000 
Sat 13:30  ENE 15/ 20  21.2  9.4  1013.1    0.0   0.0   0.0   0.0   10000 
Sat 14:00    E 13/ 22  22.2 10.4  1012.8    0.0   0.0   0.0   0.0   10000 
Sat 14:30    E 17/ 24  21.5 10.9  1012.7    0.0   0.0   0.0   0.0   10000 

MINLATON AERO

Site: 022031
Alt: 32.0m
44km SSW of MAITLAND (YORKE PENINSULA)


  Time     Wind        Temp  DP   Baro     Rain since   Rain past  Vis(m), Cloud(base in m), Weather
  local        km/h                         9am  last   hr   10m    
Sat 09:30    E 35/ 43  19.2  8.8  1012.7    0.0   0.0   0.0   0.0   ----- 
Sat 10:00    E 37/ 45  20.2  8.2  1012.7    0.0   0.0   0.0   0.0   ----- 
Sat 10:30    E 32/ 41  20.7  8.4  1013.1    0.0   0.0   0.0   0.0   ----- 
Sat 11:00  ENE 28/ 33  21.6  8.1  1013.2    0.0   0.0   0.0   0.0   ----- 
Sat 11:30    E 26/ 32  23.7  8.6  1012.9    0.0   0.0   0.0   0.0   ----- 
Sat 12:00    E 22/ 28  24.0  8.0  1012.7    0.0   0.0   0.0   0.0   ----- 
Sat 12:30  ENE 15/ 20  25.9  8.0  1012.3    0.0   0.0   0.0   0.0   ----- 
Sat 13:00    E  9/ 22  26.7  7.2  1012.0    0.0   0.0   0.0   0.0   ----- 
Sat 13:30   NE 11/ 20  26.4  6.4  1011.7    0.0   0.0   0.0   0.0   ----- 
Sat 14:00    N  7/ 13  27.2  6.6  1011.3    0.0   0.0   0.0   0.0   ----- 
Sat 14:30   SE 13/ 20  27.4  6.8  1010.8    0.0   0.0   0.0   0.0   ----- 

MOONTA (WARBURTO POINT)

Site: 022053
Alt: 1.0m
43km NNW of MAITLAND (YORKE PENINSULA)


  Time     Wind        Temp  DP   Baro     Rain since   Rain past  Vis(m), Cloud(base in m), Weather
  local        km/h                         9am  last   hr   10m    
Sat 09:30    E 13/ 15 --------  ------   ----  ----  ----  ----   ----- 
Sat 10:00    E 15/ 22 --------  ------   ----  ----  ----  ----   ----- 
Sat 10:30  NNE 11/ 15 --------  ------   ----  ----  ----  ----   ----- 
Sat 11:00  NNW 11/ 13 --------  ------   ----  ----  ----  ----   ----- 
Sat 11:30  WNW 11/ 15 --------  ------   ----  ----  ----  ----   ----- 
Sat 12:00    W 17/ 19 --------  ------   ----   0.0   0.0  ----   ----- 
Sat 12:30    W 11/ 13 --------  ------   ----   0.0   0.0  ----   ----- 
Sat 13:00    W 13/ 17 --------  ------   ----   0.0   0.0  ----   ----- 
Sat 13:30    W 11/ 15 --------  ------   ----   0.0   0.0  ----   ----- 
Sat 14:00    W 11/ 13 --------  ------   ----   0.0   0.0  ----   ----- 
Sat 14:30    W 13/ 19 --------  ------   ----   0.0   0.0  ----   ----- 

PARNDANA CFS AWS

Site: 022843
Alt: 165.0m
38km WSW of KINGSCOTE (KANGAROO ISLAND)


  Time     Wind        Temp  DP   Baro     Rain since   Rain past  Vis(m), Cloud(base in m), Weather
  local        km/h                         9am  last   hr   10m    
Sat 09:30    E 22/ 28  14.6  9.4  ------    0.0   0.0   0.0   0.0   ----- 
Sat 10:00    E 20/ 26  16.2  9.8  ------    0.0   0.0   0.0   0.0   ----- 
Sat 10:30    E 17/ 22  17.2  9.6  ------    0.0   0.0   0.0   0.0   ----- 
Sat 11:00    E 19/ 26  17.9  9.3  ------    0.0   0.0   0.0   0.0   ----- 
Sat 11:30  ESE 15/ 26  19.1  9.0  ------    0.0   0.0   0.0   0.0   ----- 
Sat 12:00  ESE 15/ 22  19.7  9.0  ------    0.0   0.0   0.0   0.0   ----- 
Sat 12:30  ESE 13/ 20  20.1  8.4  ------    0.0   0.0   0.0   0.0   ----- 
Sat 13:00  ESE 13/ 26  20.9  9.5  ------    0.0   0.0   0.0   0.0   ----- 
Sat 13:30  ESE 13/ 20  21.6  9.2  ------    0.0   0.0   0.0   0.0   ----- 
Sat 14:00  ESE 15/ 20  21.1  8.7  ------    0.0   0.0   0.0   0.0   ----- 
Sat 14:30  ESE 17/ 24  20.6  9.2  ------    0.0   0.0   0.0   0.0   ----- 

STENHOUSE BAY

Site: 022049
Alt: 42.0m
76km WNW of KINGSCOTE (KANGAROO ISLAND)


  Time     Wind        Temp  DP   Baro     Rain since   Rain past  Vis(m), Cloud(base in m), Weather
  local        km/h                         9am  last   hr   10m    
Sat 09:30    E 28/ 35  17.8 11.4  1013.8    0.0   0.0   0.0   0.0   ----- 
Sat 10:00    E 24/ 32  17.7 10.8  1014.0    0.0   0.0   0.0   0.0   ----- 
Sat 10:30    E 24/ 33  18.0 11.8  1013.9    0.0   0.0   0.0   0.0   ----- 
Sat 11:00    E 28/ 33  19.2 12.0  1013.8    0.0   0.0   0.0   0.0   ----- 
Sat 11:30    E 26/ 33  19.0 11.8  1013.6    0.0   0.0   0.0   0.0   ----- 
Sat 12:00    E 24/ 32  19.5 11.5  1013.5    0.0   0.0   0.0   0.0   ----- 
Sat 12:30    E 24/ 30  19.1 11.7  1013.3    0.0   0.0   0.0   0.0   ----- 
Sat 13:00    E 24/ 30  19.6 11.1  1013.0    0.0   0.0   0.0   0.0   ----- 
Sat 13:30    E 22/ 28  20.8 11.4  1012.7    0.0   0.0   0.0   0.0   ----- 
Sat 14:00    E 20/ 28  19.2 11.3  1012.4    0.0   0.0   0.0   0.0   ----- 
Sat 14:30    E 20/ 24  21.5 12.1  1012.1    0.0   0.0   0.0   0.0   -----